Time;durP1;ratioP1;P1;durP2;ratioP2;P2;SDS_P1;SDS_P2;PMS_P1;PMS_P2;Temp;Humidity;BMP_temperature;BMP_pressure;BME280_temperature;BME280_humidity;BME280_pressure;Samples;Min_cycle;Max_cycle;Signal;HPM_P1;HPM_P2
2021/10/22 00:01:09;;;;;;;18.57;12.50;;;;;;;11.55;69.56;94537.64;833756;71;30770;-83
2021/10/22 00:16:08;;;;;;;15.25;11.80;;;;;;;11.52;69.51;94548.75;833387;71;29749;-83
2021/10/22 00:31:15;;;;;;;15.50;11.50;;;;;;;11.48;69.73;94532.01;833544;71;32791;-80
2021/10/22 00:46:09;;;;;;;14.70;11.05;;;;;;;11.41;70.04;94535.80;827823;71;30354;-81
2021/10/22 01:01:09;;;;;;;17.60;11.65;;;;;;;11.38;70.32;94538.22;827795;71;30570;-82
2021/10/22 01:16:09;;;;;;;23.80;13.53;;;;;;;11.33;70.73;94541.70;835730;70;28917;-81
2021/10/22 01:31:08;;;;;;;16.35;12.63;;;;;;;11.24;71.02;94548.72;828023;71;29531;-82
2021/10/22 01:46:09;;;;;;;16.77;12.80;;;;;;;11.14;71.49;94547.03;828151;71;28710;-83
2021/10/22 02:01:15;;;;;;;16.93;12.47;;;;;;;11.02;71.47;94548.80;827241;71;31767;-80
2021/10/22 02:16:16;;;;;;;15.30;11.83;;;;;;;10.89;71.83;94559.27;833701;71;32259;-81
2021/10/22 02:31:08;;;;;;;15.03;11.12;;;;;;;10.75;72.48;94561.33;828529;71;29210;-82
2021/10/22 02:46:08;;;;;;;15.28;11.65;;;;;;;10.71;72.29;94585.81;823336;71;29000;-79
2021/10/22 03:16:15;;;;;;;16.65;12.98;;;;;;;11.61;69.91;94614.00;827597;71;31747;-80
2021/10/22 03:31:07;;;;;;;18.67;13.25;;;;;;;11.28;70.11;94605.39;827865;71;29191;-80
2021/10/22 03:46:14;;;;;;;19.57;13.13;;;;;;;11.00;70.51;94612.64;833507;71;32209;-79
2021/10/22 04:01:15;;;;;;;16.02;11.90;;;;;;;10.74;71.36;94621.44;827519;71;31804;-80
2021/10/22 04:16:08;;;;;;;16.70;12.63;;;;;;;10.53;72.58;94618.88;828183;71;29060;-79
2021/10/22 04:31:14;;;;;;;20.20;14.03;;;;;;;10.38;73.04;94614.08;834135;71;31842;-81
2021/10/22 04:46:09;;;;;;;21.17;14.23;;;;;;;10.24;73.61;94605.33;827952;71;29358;-79
2021/10/22 05:01:18;;;;;;;21.97;16.00;;;;;;;10.19;73.97;94594.52;827250;71;32230;-76
2021/10/22 05:16:07;;;;;;;23.73;15.85;;;;;;;;;;828032;71;28698;-76
2021/10/22 05:31:14;;;;;;;28.70;19.05;;;;;;;11.45;73.09;94638.98;833258;71;32761;-75
2021/10/22 05:46:14;;;;;;;27.75;18.27;;;;;;;13.67;66.39;94663.86;833512;71;33674;-76
2021/10/22 06:01:08;;;;;;;30.68;20.62;;;;;;;15.89;60.10;94691.50;833771;71;29739;-75
2021/10/22 06:16:11;;;;;;;33.45;23.00;;;;;;;16.79;55.80;94698.43;828256;71;29724;-74
2021/10/22 06:31:15;;;;;;;28.52;21.45;;;;;;;16.68;55.36;94708.39;827571;71;32709;-77
2021/10/22 06:46:10;;;;;;;30.23;21.15;;;;;;;17.61;53.59;94725.81;833679;71;31092;-75
2021/10/22 07:01:09;;;;;;;19.55;16.25;;;;;;;18.36;51.21;94721.48;828429;71;30477;-74
2021/10/22 07:16:15;;;;;;;19.87;16.10;;;;;;;18.84;48.19;94753.20;832994;71;32791;-76
2021/10/22 07:31:15;;;;;;;19.95;17.35;;;;;;;18.90;48.71;94739.89;826613;71;33502;-76
2021/10/22 07:46:09;;;;;;;26.70;18.70;;;;;;;19.26;48.98;94733.50;833477;71;30561;-74
2021/10/22 08:01:14;;;;;;;24.05;18.05;;;;;;;19.45;48.15;94743.55;833714;71;33194;-75
2021/10/22 08:16:16;;;;;;;24.32;19.25;;;;;;;19.27;48.32;94754.45;833054;71;32734;-76
2021/10/22 08:31:14;;;;;;;25.90;18.27;;;;;;;19.28;48.76;94741.39;827548;71;32748;-76
2021/10/22 08:46:17;;;;;;;26.15;18.50;;;;;;;18.29;49.97;94752.59;827577;71;31049;-75
2021/10/22 09:16:23;;;;;;;21.60;17.75;;;;;;;19.05;49.75;94742.97;833758;71;32834;-76
2021/10/22 09:31:20;;;;;;;26.73;19.82;;;;;;;20.24;47.46;94726.44;826127;71;30324;-76
2021/10/22 09:46:17;;;;;;;28.35;20.80;;;;;;;19.60;49.24;94721.52;827031;71;32727;-77
2021/10/22 10:01:14;;;;;;;192.95;107.45;;;;;;;20.85;46.85;94707.12;827196;71;32658;-75
2021/10/22 10:16:10;;;;;;;90.97;67.93;;;;;;;22.32;45.86;94695.25;828182;70;30292;-75
2021/10/22 10:31:30;;;;;;;29.20;22.60;;;;;;;21.95;44.49;94682.40;828486;71;32017;-74
2021/10/22 10:46:36;;;;;;;23.37;19.60;;;;;;;21.41;45.59;94674.16;823814;71;32912;-76
2021/10/22 11:01:24;;;;;;;27.10;19.33;;;;;;;22.10;44.44;94652.13;827661;71;32741;-75
2021/10/22 11:16:30;;;;;;;24.93;19.93;;;;;;;22.50;44.27;94620.66;833146;71;31060;-73
2021/10/22 11:31:08;;;;;;;23.50;18.70;;;;;;;22.70;43.26;94614.05;827512;71;29759;-75
2021/10/22 11:46:20;;;;;;;20.50;17.20;;;;;;;21.88;45.08;94609.58;827194;71;32666;-75
2021/10/22 12:01:12;;;;;;;14.40;13.00;;;;;;;22.44;44.99;94600.70;828237;71;32036;-76
2021/10/22 12:16:16;;;;;;;11.93;10.77;;;;;;;22.81;44.08;94584.78;828358;71;32721;-76
2021/10/22 12:31:12;;;;;;;9.93;8.93;;;;;;;22.63;43.31;94579.20;827827;71;29704;-77
2021/10/22 12:46:16;;;;;;;9.53;8.60;;;;;;;22.62;43.08;94568.85;833581;71;31036;-74
2021/10/22 13:01:14;;;;;;;8.63;7.83;;;;;;;22.44;42.74;94564.60;828084;71;28654;-77
2021/10/22 13:31:10;;;;;;;13.30;11.10;;;;;;;21.41;44.35;94559.36;832842;71;29341;-76
2021/10/22 13:46:09;;;;;;;8.45;7.65;;;;;;;20.92;44.54;94567.97;827429;71;28971;-76
2021/10/22 14:01:15;;;;;;;8.33;7.50;;;;;;;21.96;47.07;94571.73;826588;71;32315;-76
2021/10/22 14:16:26;;;;;;;7.43;6.43;;;;;;;21.06;45.90;94572.05;827774;71;29246;-78
2021/10/22 14:31:11;;;;;;;7.97;7.17;;;;;;;20.43;47.70;94571.70;827497;71;29270;-76
2021/10/22 15:16:10;;;;;;;12.65;11.20;;;;;;;18.99;52.41;94572.22;834099;71;28688;-76
2021/10/22 15:31:51;;;;;;;15.95;13.60;;;;;;;18.61;54.96;94580.86;816315;72;31928;-78
2021/10/22 15:46:33;;;;;;;18.07;14.40;;;;;;;18.13;57.10;94589.11;833440;71;32354;-81
2021/10/22 16:31:18;;;;;;;15.83;10.95;;;;;;;16.96;61.70;94628.63;820678;71;31953;-76
2021/10/22 16:46:43;;;;;;;16.50;13.35;;;;;;;16.69;63.54;94651.11;802028;72;32163;-79
2021/10/22 17:01:18;;;;;;;25.37;16.73;;;;;;;16.53;64.44;94666.02;819615;71;32792;-76
2021/10/22 17:16:29;;;;;;;25.40;17.60;;;;;;;16.34;65.24;94679.13;820277;71;32578;-76
2021/10/22 17:31:34;;;;;;;19.20;14.78;;;;;;;16.11;66.04;94654.77;826448;71;32694;-79
2021/10/22 17:46:08;;;;;;;29.40;18.07;;;;;;;16.06;66.27;94658.13;827356;71;28677;-78
2021/10/22 18:01:35;;;;;;;25.17;18.02;;;;;;;15.90;67.51;94657.91;833148;71;31817;-80
2021/10/22 18:16:17;;;;;;;23.73;18.73;;;;;;;15.82;68.81;94653.63;823097;70;32055;-78
2021/10/22 18:31:12;;;;;;;25.48;17.77;;;;;;;15.63;68.18;94655.30;820260;71;29794;-76
2021/10/22 18:46:20;;;;;;;28.90;20.70;;;;;;;15.48;69.06;94663.72;818209;71;31875;-78
2021/10/22 19:01:15;;;;;;;29.80;22.15;;;;;;;15.36;69.65;94670.20;818776;71;32643;-79
2021/10/22 19:16:18;;;;;;;41.45;28.75;;;;;;;15.05;70.54;94688.34;833356;71;31767;-78
2021/10/22 19:31:11;;;;;;;33.65;25.00;;;;;;;14.95;70.38;94692.05;829794;71;29305;-80
2021/10/22 19:46:29;;;;;;;28.98;21.42;;;;;;;14.84;70.86;94693.43;826670;71;31882;-78
2021/10/22 20:01:27;;;;;;;34.45;27.00;;;;;;;14.68;71.78;94685.72;814552;71;32282;-78
2021/10/22 20:16:15;;;;;;;32.88;26.05;;;;;;;14.46;72.47;94688.69;817713;71;31912;-76
2021/10/22 20:31:19;;;;;;;34.65;24.95;;;;;;;14.33;73.21;94686.38;833228;71;32055;-79
2021/10/22 20:46:22;;;;;;;29.57;22.85;;;;;;;14.27;73.26;94711.36;833353;71;32243;-76
2021/10/22 21:16:22;;;;;;;21.45;15.95;;;;;;;14.01;74.00;94693.58;799356;74;31993;-77
2021/10/22 21:31:23;;;;;;;23.42;18.70;;;;;;;13.93;74.32;94686.93;833426;71;32284;-76
2021/10/22 21:46:30;;;;;;;24.30;19.35;;;;;;;13.88;74.51;94697.63;821589;70;31755;-76
2021/10/22 22:16:22;;;;;;;31.42;20.62;;;;;;;13.63;75.94;94696.64;833399;71;32755;-78
2021/10/22 22:31:19;;;;;;;27.45;21.35;;;;;;;13.60;76.23;94691.19;826603;71;31751;-78
2021/10/22 22:46:35;;;;;;;30.05;20.52;;;;;;;13.53;76.59;94703.48;833480;71;32771;-76
2021/10/22 23:01:11;;;;;;;20.88;17.45;;;;;;;13.48;76.85;94704.91;827039;71;30347;-78
2021/10/22 23:16:31;;;;;;;25.23;18.15;;;;;;;13.45;77.09;94712.11;826279;71;32761;-78
2021/10/22 23:31:13;;;;;;;24.18;18.30;;;;;;;13.40;76.92;94708.27;827255;71;31504;-76
2021/10/22 23:46:10;;;;;;;23.47;17.80;;;;;;;13.53;76.64;94721.16;827479;71;30317;-76
